Weather

EOSM Weather Station at 21:14 on 21/05/18

Wind: 5kt  ( 6mph 298° ) Today's High: 13kt at 1:53 QFE: 1014mb QNH: 1018mb (Rising Slowly) Temp: 13°C Dew Point: 10°C Humidity: 85% Rain: None Sunrise: 4:45 Sunset: 21:27

TAFs

  • Edinburgh TAF EGPH 211657Z 2118/2218 30006KT 9999 FEW045 BECMG 2121/2124 07012KT TEMPO 2121/2218 6000 -RADZ BKN009 PROB40 TEMPO 2200/2218 08015G25KT
  • Leuchars TAF EGQL 211947Z 2121/2206 07007KT 9999 BKN045 TEMPO 2121/2206 6000 HZ SCT012 PROB30 TEMPO 2121/2122 2000 VCFG SCT002

Live Airfield Webcams

Looking north towards Berwick Law Looking west Looking east

Windy.com Forecast

OZEE AND BLUE SKY BLUE FLYING SUITS

We are offering a 5% discount on the price of Ozee and Blue Sky Blue flying suits - please send an email to jill@eosm.co.uk giving your choice of suit, size and colour preference.

Pooleys advert

Pooleys are supporting East of Scotland Microlights members and guests by offering 5% discount to anyone making a purchase on their website www.pooleys.com. Simply enter the promotional code "EOSM" when you checkout and you will get a 5% discount on whatever you buy.